Time;durP1;ratioP1;P1;durP2;ratioP2;P2;SDS_P1;SDS_P2;PMS_P1;PMS_P2;Temp;Humidity;BMP_temperature;BMP_pressure;BME280_temperature;BME280_humidity;BME280_pressure;Samples;Min_cycle;Max_cycle;Signal;HPM_P1;HPM_P2
2023/07/12 00:00:51;;;;;;;2.50;2.00;;;20.20;99.90;;;;;;5025965;28;20091;-64
2023/07/12 00:03:17;;;;;;;3.47;2.05;;;20.20;99.90;;;;;;5028726;28;20029;-64
2023/07/12 00:05:44;;;;;;;4.15;2.35;;;20.10;99.90;;;;;;5026090;28;20038;-64
2023/07/12 00:08:17;;;;;;;3.70;2.30;;;20.10;99.90;;;;;;5030963;28;20112;-64
2023/07/12 00:10:43;;;;;;;3.75;2.03;;;20.10;99.90;;;;;;5021269;28;20056;-64
2023/07/12 00:13:10;;;;;;;3.03;1.65;;;20.20;99.90;;;;;;5020759;28;20051;-64
2023/07/12 00:15:37;;;;;;;3.75;2.35;;;20.20;99.90;;;;;;5030186;28;20612;-64
2023/07/12 00:18:05;;;;;;;2.97;1.80;;;20.20;99.90;;;;;;5018112;28;20121;-64
2023/07/12 00:20:35;;;;;;;2.53;1.77;;;20.10;99.90;;;;;;5022105;28;20124;-64
2023/07/12 00:23:01;;;;;;;4.30;1.88;;;20.20;99.90;;;;;;5026675;28;20037;-64
2023/07/12 00:25:33;;;;;;;2.90;1.90;;;20.20;99.90;;;;;;5019405;28;20046;-64
2023/07/12 00:28:00;;;;;;;4.43;2.30;;;20.20;99.90;;;;;;5025434;28;20056;-64
2023/07/12 00:30:28;;;;;;;4.03;2.70;;;20.20;99.90;;;;;;5026861;28;20045;-63
2023/07/12 00:32:56;;;;;;;5.32;3.08;;;20.10;99.90;;;;;;5027788;28;20144;-63
2023/07/12 00:35:26;;;;;;;3.00;2.63;;;20.10;99.90;;;;;;5020037;28;20045;-64
2023/07/12 00:37:55;;;;;;;3.47;2.53;;;20.10;99.90;;;;;;5031056;28;20458;-64
2023/07/12 00:40:39;;;;;;;3.95;2.70;;;20.10;99.90;;;;;;5028093;28;20046;-64
2023/07/12 00:43:33;;;;;;;3.17;2.58;;;20.10;99.90;;;;;;5026917;28;20045;-64
2023/07/12 00:46:01;;;;;;;3.90;2.55;;;20.10;99.90;;;;;;5023852;28;20037;-63
2023/07/12 00:48:27;;;;;;;4.80;2.55;;;20.00;99.90;;;;;;5026694;28;20476;-63
2023/07/12 00:50:52;;;;;;;3.00;2.45;;;20.00;99.90;;;;;;5030352;28;20052;-63
2023/07/12 00:53:21;;;;;;;2.70;2.35;;;20.00;99.90;;;;;;5030174;28;20112;-63
2023/07/12 00:55:55;;;;;;;3.78;2.42;;;20.00;99.90;;;;;;5029992;28;20033;-63
2023/07/12 00:58:23;;;;;;;3.08;2.58;;;20.00;99.90;;;;;;5013627;28;20034;-63
2023/07/12 01:00:50;;;;;;;4.80;2.83;;;19.90;99.90;;;;;;5031017;28;20037;-63
2023/07/12 01:03:18;;;;;;;3.88;2.92;;;20.00;99.90;;;;;;5024481;28;20038;-63
2023/07/12 01:05:44;;;;;;;4.55;2.50;;;19.90;99.90;;;;;;5029528;28;21814;-63
2023/07/12 01:08:12;;;;;;;3.42;2.92;;;20.00;99.90;;;;;;5033649;28;20447;-63
2023/07/12 01:10:39;;;;;;;3.22;2.65;;;19.90;99.90;;;;;;5033939;28;20041;-63
2023/07/12 01:13:06;;;;;;;3.22;2.92;;;19.90;99.90;;;;;;5031561;28;20037;-63
2023/07/12 01:15:33;;;;;;;4.60;3.30;;;19.90;99.90;;;;;;5031702;28;20564;-63
2023/07/12 01:17:59;;;;;;;4.78;3.00;;;19.80;99.90;;;;;;5033291;28;20387;-63
2023/07/12 01:20:26;;;;;;;6.63;3.22;;;19.80;99.90;;;;;;5034208;28;20040;-63
2023/07/12 01:22:53;;;;;;;3.95;2.97;;;19.80;99.90;;;;;;5033240;28;20052;-63
2023/07/12 01:25:37;;;;;;;4.72;2.63;;;19.80;99.90;;;;;;5028413;28;20145;-63
2023/07/12 01:28:03;;;;;;;3.05;2.78;;;19.70;99.90;;;;;;5030830;28;20045;-63
2023/07/12 01:30:29;;;;;;;4.15;2.72;;;19.70;99.90;;;;;;5027712;28;20053;-63
2023/07/12 01:32:54;;;;;;;3.45;2.65;;;19.60;99.90;;;;;;5024923;28;20055;-63
2023/07/12 01:35:20;;;;;;;3.90;3.00;;;19.60;99.90;;;;;;5032893;28;20079;-63
2023/07/12 01:37:46;;;;;;;3.00;2.65;;;19.60;99.90;;;;;;5015882;28;20145;-63
2023/07/12 01:40:12;;;;;;;6.25;3.10;;;19.60;99.90;;;;;;5014157;28;20484;-63
2023/07/12 01:42:37;;;;;;;4.18;2.78;;;19.60;99.90;;;;;;5032228;28;20534;-63
2023/07/12 01:45:03;;;;;;;5.32;3.03;;;19.60;99.90;;;;;;5028926;28;20046;-63
2023/07/12 01:47:30;;;;;;;4.15;2.50;;;19.50;99.90;;;;;;5033407;28;20037;-63
2023/07/12 01:49:56;;;;;;;3.53;3.05;;;19.50;99.90;;;;;;5031929;28;20034;-63
2023/07/12 01:52:22;;;;;;;3.20;2.85;;;19.50;99.90;;;;;;5033573;28;20056;-63
2023/07/12 01:54:48;;;;;;;5.10;2.92;;;19.50;99.90;;;;;;5031865;28;20073;-63
2023/07/12 01:57:15;;;;;;;4.13;3.30;;;19.50;99.90;;;;;;5030211;28;20083;-63
2023/07/12 01:59:41;;;;;;;6.05;3.10;;;19.50;99.90;;;;;;5033151;28;20095;-63
2023/07/12 02:02:07;;;;;;;4.05;2.67;;;19.40;99.90;;;;;;5027409;28;20428;-64
2023/07/12 02:04:32;;;;;;;4.38;3.20;;;19.50;99.90;;;;;;5023494;28;20136;-64
2023/07/12 02:06:58;;;;;;;5.72;2.80;;;19.40;99.90;;;;;;5028830;28;20455;-64
2023/07/12 02:09:24;;;;;;;5.07;3.13;;;19.40;99.90;;;;;;5032870;28;20049;-64
2023/07/12 02:11:50;;;;;;;5.78;3.00;;;19.40;99.90;;;;;;5032429;28;20087;-64
2023/07/12 02:14:15;;;;;;;4.50;3.63;;;19.40;99.90;;;;;;5030783;28;20069;-64
2023/07/12 02:16:41;;;;;;;5.53;3.10;;;19.30;99.90;;;;;;5030562;28;20041;-64
2023/07/12 02:19:07;;;;;;;4.07;3.00;;;19.30;99.90;;;;;;5032454;28;20072;-64
2023/07/12 02:21:32;;;;;;;5.90;3.10;;;19.30;99.90;;;;;;5027407;28;20041;-64
2023/07/12 02:23:58;;;;;;;6.35;3.67;;;19.20;99.90;;;;;;5029698;28;21531;-64
2023/07/12 02:26:23;;;;;;;4.13;3.17;;;19.20;99.90;;;;;;5032279;28;20376;-64
2023/07/12 02:28:49;;;;;;;4.38;3.33;;;19.10;99.90;;;;;;5031796;28;20041;-64
2023/07/12 02:31:17;;;;;;;4.30;3.17;;;19.10;99.90;;;;;;5032525;28;20187;-64
2023/07/12 02:33:43;;;;;;;5.45;3.45;;;19.10;99.90;;;;;;5031613;28;20396;-64
2023/07/12 02:36:09;;;;;;;6.75;3.75;;;19.00;99.90;;;;;;5031644;28;20033;-64
2023/07/12 02:38:34;;;;;;;5.35;3.70;;;19.00;99.90;;;;;;5029167;28;20034;-64
2023/07/12 02:41:00;;;;;;;5.60;3.85;;;19.00;99.90;;;;;;5031567;28;20041;-64
2023/07/12 02:43:26;;;;;;;7.35;3.90;;;19.00;99.90;;;;;;5030217;28;20049;-64
2023/07/12 02:45:51;;;;;;;5.22;3.85;;;19.00;99.90;;;;;;5020221;28;20058;-63
2023/07/12 02:48:17;;;;;;;7.15;3.78;;;19.00;99.90;;;;;;5030818;28;20124;-64
2023/07/12 02:50:43;;;;;;;6.65;4.05;;;18.90;99.90;;;;;;5029046;28;20030;-64
2023/07/12 02:53:16;;;;;;;6.22;4.40;;;18.90;99.90;;;;;;5030520;28;20096;-63
2023/07/12 02:55:42;;;;;;;7.93;4.35;;;18.90;99.90;;;;;;5022844;28;20124;-64
2023/07/12 02:58:08;;;;;;;7.82;4.32;;;18.90;99.90;;;;;;5020058;28;20589;-64
2023/07/12 03:00:33;;;;;;;5.97;4.10;;;18.90;99.90;;;;;;5031908;28;20116;-64
2023/07/12 03:02:59;;;;;;;6.85;4.43;;;18.90;99.90;;;;;;5021869;28;20037;-64
2023/07/12 03:05:25;;;;;;;10.88;5.47;;;18.90;99.90;;;;;;5027841;28;20407;-64
2023/07/12 03:07:52;;;;;;;6.40;3.88;;;18.80;99.90;;;;;;5027803;28;20054;-64
2023/07/12 03:10:18;;;;;;;8.20;3.97;;;18.90;99.90;;;;;;5030644;28;20049;-63
2023/07/12 03:12:44;;;;;;;10.52;4.20;;;18.80;99.90;;;;;;5031183;28;20036;-64
2023/07/12 03:15:10;;;;;;;7.68;4.22;;;18.80;99.90;;;;;;5015069;28;20033;-64
2023/07/12 03:17:35;;;;;;;8.82;3.88;;;18.80;99.90;;;;;;5030454;28;20499;-63
2023/07/12 03:20:01;;;;;;;9.98;4.20;;;18.80;99.90;;;;;;5031340;28;20072;-63
2023/07/12 03:22:26;;;;;;;6.75;3.60;;;18.80;99.90;;;;;;5027326;28;20112;-64
2023/07/12 03:24:52;;;;;;;9.77;4.35;;;18.70;99.90;;;;;;5030103;28;20060;-63
2023/07/12 03:27:18;;;;;;;8.50;3.63;;;18.80;99.90;;;;;;5026307;28;20492;-64
2023/07/12 03:29:43;;;;;;;8.50;4.20;;;18.80;99.90;;;;;;5010905;28;20041;-63
2023/07/12 03:32:09;;;;;;;7.28;3.65;;;18.70;99.90;;;;;;5015675;28;20087;-63
2023/07/12 03:34:35;;;;;;;8.75;3.92;;;18.60;99.90;;;;;;5030240;28;20038;-64
2023/07/12 03:37:00;;;;;;;9.75;4.47;;;18.60;99.90;;;;;;5029002;28;20051;-64
2023/07/12 03:39:27;;;;;;;7.45;4.20;;;18.60;99.90;;;;;;5031286;28;20037;-63
2023/07/12 03:41:53;;;;;;;7.90;5.25;;;18.60;99.90;;;;;;5029062;28;20064;-64
2023/07/12 03:44:18;;;;;;;9.85;4.63;;;18.50;99.90;;;;;;5030649;28;20492;-63
2023/07/12 03:46:44;;;;;;;10.98;4.45;;;18.50;99.90;;;;;;5028903;28;20191;-63
2023/07/12 03:49:09;;;;;;;7.28;3.90;;;18.50;99.90;;;;;;5029726;28;20033;-63
2023/07/12 03:51:35;;;;;;;8.30;4.20;;;18.50;99.90;;;;;;5027993;28;20156;-63
2023/07/12 03:54:00;;;;;;;8.60;4.25;;;18.50;99.90;;;;;;5026433;28;20108;-63
2023/07/12 03:56:26;;;;;;;11.30;4.40;;;18.50;99.90;;;;;;5028759;28;20033;-64
2023/07/12 03:58:52;;;;;;;10.18;4.10;;;18.50;99.90;;;;;;5044602;28;20077;-64
2023/07/12 04:01:18;;;;;;;10.05;3.85;;;18.40;99.90;;;;;;5029700;28;20030;-64
2023/07/12 04:03:44;;;;;;;9.48;3.97;;;18.40;99.90;;;;;;5031225;28;20052;-64
2023/07/12 04:06:09;;;;;;;9.40;4.57;;;18.40;99.90;;;;;;5027606;28;20033;-64
2023/07/12 04:08:36;;;;;;;8.90;3.97;;;18.30;99.90;;;;;;5030844;28;20041;-64
2023/07/12 04:11:03;;;;;;;12.05;4.70;;;18.30;99.90;;;;;;5027851;28;20112;-65
2023/07/12 04:13:29;;;;;;;8.60;4.03;;;18.30;99.90;;;;;;5028525;28;20042;-64
2023/07/12 04:15:56;;;;;;;7.50;3.97;;;18.30;99.90;;;;;;5027847;28;20056;-65
2023/07/12 04:18:26;;;;;;;10.57;4.30;;;18.20;99.90;;;;;;5027777;28;20051;-64
2023/07/12 04:20:58;;;;;;;8.27;4.13;;;18.20;99.90;;;;;;5028459;28;20033;-64
2023/07/12 04:23:24;;;;;;;9.15;3.80;;;18.20;99.90;;;;;;5029767;28;20049;-64
2023/07/12 04:25:58;;;;;;;8.52;4.20;;;18.20;99.90;;;;;;5030497;28;20414;-64
2023/07/12 04:28:23;;;;;;;11.75;4.00;;;18.30;99.90;;;;;;5028718;28;20033;-65
2023/07/12 04:30:49;;;;;;;9.60;3.80;;;18.20;99.90;;;;;;5019743;28;20057;-65
2023/07/12 04:33:14;;;;;;;9.65;3.85;;;18.20;99.90;;;;;;5023931;28;20048;-64
2023/07/12 04:35:40;;;;;;;13.05;4.45;;;18.20;99.90;;;;;;5028744;28;20030;-64
2023/07/12 04:38:06;;;;;;;9.90;4.13;;;18.20;99.90;;;;;;5033743;28;20117;-64
2023/07/12 04:40:31;;;;;;;8.98;4.25;;;18.20;99.90;;;;;;5034687;28;20037;-65
2023/07/12 04:42:57;;;;;;;8.23;3.85;;;18.10;99.90;;;;;;5030107;28;20084;-65
2023/07/12 04:45:23;;;;;;;8.95;4.00;;;18.10;99.90;;;;;;5033638;28;20513;-64
2023/07/12 04:47:48;;;;;;;9.48;3.70;;;18.00;99.90;;;;;;5029272;28;20060;-65
2023/07/12 04:50:14;;;;;;;10.63;4.13;;;18.00;99.90;;;;;;5030184;28;20550;-64
2023/07/12 04:52:39;;;;;;;8.65;4.60;;;18.00;99.90;;;;;;5028782;28;20356;-64
2023/07/12 04:55:23;;;;;;;8.25;3.50;;;18.00;99.90;;;;;;5032768;28;20061;-65
2023/07/12 04:57:48;;;;;;;11.32;4.05;;;18.00;99.90;;;;;;5047933;22;20046;-71
2023/07/12 05:00:15;;;;;;;7.50;3.92;;;17.90;99.90;;;;;;5032640;28;20121;-70
2023/07/12 05:02:42;;;;;;;6.65;3.88;;;17.90;99.90;;;;;;5031540;28;20612;-70
2023/07/12 05:05:08;;;;;;;12.18;4.22;;;17.90;99.90;;;;;;5031361;28;20571;-70
2023/07/12 05:07:33;;;;;;;8.23;4.30;;;17.90;99.90;;;;;;5032091;28;20120;-70
2023/07/12 05:09:59;;;;;;;9.30;4.28;;;17.90;99.90;;;;;;5033371;28;20064;-70
2023/07/12 05:12:24;;;;;;;11.10;4.22;;;17.90;99.90;;;;;;5034247;28;20033;-70
2023/07/12 05:14:50;;;;;;;10.23;3.97;;;18.00;99.90;;;;;;5032555;28;20056;-70
2023/07/12 05:17:16;;;;;;;9.27;4.20;;;18.00;99.90;;;;;;5032921;28;20510;-69
2023/07/12 05:19:42;;;;;;;8.13;4.53;;;17.90;99.90;;;;;;5033943;28;20073;-70
2023/07/12 05:22:07;;;;;;;12.52;4.90;;;17.90;99.90;;;;;;5032665;28;20029;-70
2023/07/12 05:24:33;;;;;;;11.20;4.72;;;17.90;99.90;;;;;;5031731;28;20176;-69
2023/07/12 05:26:59;;;;;;;8.73;4.65;;;17.90;99.90;;;;;;5033062;28;20403;-69
2023/07/12 05:29:24;;;;;;;13.32;5.53;;;18.10;99.90;;;;;;5033896;28;20041;-69
2023/07/12 05:31:50;;;;;;;11.35;5.10;;;18.20;99.90;;;;;;5032491;28;20045;-69
2023/07/12 05:34:16;;;;;;;11.32;5.70;;;18.20;99.90;;;;;;5024376;28;20035;-70
2023/07/12 05:36:41;;;;;;;14.38;5.80;;;18.20;99.90;;;;;;5033772;28;20503;-69
2023/07/12 05:39:07;;;;;;;12.48;5.50;;;18.20;99.90;;;;;;5033262;28;20034;-70
2023/07/12 05:41:33;;;;;;;13.77;5.75;;;18.20;99.90;;;;;;5031544;28;20029;-70
2023/07/12 05:43:59;;;;;;;10.85;5.78;;;18.10;99.90;;;;;;5027626;28;20045;-65
2023/07/12 05:46:25;;;;;;;18.10;6.45;;;18.10;99.90;;;;;;5028786;28;20034;-64
2023/07/12 05:48:51;;;;;;;13.75;6.10;;;18.00;99.90;;;;;;5031067;28;20068;-64
2023/07/12 05:51:17;;;;;;;13.15;6.07;;;18.00;99.90;;;;;;5032015;28;20041;-65
2023/07/12 05:53:42;;;;;;;14.05;7.03;;;18.10;99.90;;;;;;5031195;28;20041;-64
2023/07/12 05:56:08;;;;;;;17.08;6.82;;;18.10;99.90;;;;;;5031449;28;20037;-64
2023/07/12 05:58:35;;;;;;;12.35;6.85;;;18.20;99.90;;;;;;5032374;28;20065;-64
2023/07/12 06:01:02;;;;;;;14.20;6.82;;;18.20;99.90;;;;;;5033318;28;20104;-64
2023/07/12 06:03:30;;;;;;;13.77;7.05;;;18.10;99.90;;;;;;5031736;28;20041;-65
2023/07/12 06:05:57;;;;;;;16.25;7.30;;;18.20;99.90;;;;;;5033039;28;20047;-65
2023/07/12 06:08:26;;;;;;;17.35;7.25;;;18.20;99.90;;;;;;5030154;28;20079;-65
2023/07/12 06:10:52;;;;;;;13.45;7.15;;;18.20;99.90;;;;;;5032858;28;20553;-64
2023/07/12 06:13:18;;;;;;;11.63;7.47;;;18.20;99.90;;;;;;5031444;28;20034;-65
2023/07/12 06:15:44;;;;;;;14.52;7.65;;;18.20;99.90;;;;;;5032694;28;20037;-64
2023/07/12 06:18:09;;;;;;;14.00;7.90;;;18.30;99.90;;;;;;5024585;28;20045;-64
2023/07/12 06:20:35;;;;;;;17.33;7.82;;;18.40;99.90;;;;;;5020969;28;20034;-64
2023/07/12 06:23:02;;;;;;;15.93;7.47;;;18.50;99.90;;;;;;5030719;28;20048;-64
2023/07/12 06:25:28;;;;;;;14.15;8.00;;;18.60;99.90;;;;;;5020241;28;20099;-65
2023/07/12 06:27:54;;;;;;;20.80;9.20;;;18.60;99.90;;;;;;5012666;28;20093;-65
2023/07/12 06:30:20;;;;;;;15.80;7.93;;;18.60;99.90;;;;;;5027628;28;20402;-65
2023/07/12 06:32:45;;;;;;;14.35;8.48;;;18.70;99.90;;;;;;5032689;28;20041;-65
2023/07/12 06:35:11;;;;;;;16.80;9.05;;;18.60;99.90;;;;;;5030854;28;20046;-66
2023/07/12 06:37:37;;;;;;;14.60;8.13;;;18.60;99.90;;;;;;5032278;28;20065;-65
2023/07/12 06:40:05;;;;;;;15.68;8.38;;;18.70;99.90;;;;;;5032249;28;20506;-65
2023/07/12 06:42:31;;;;;;;12.35;8.18;;;18.70;99.90;;;;;;5032487;28;20075;-65
2023/07/12 06:44:56;;;;;;;15.95;8.35;;;18.60;99.90;;;;;;5030969;28;20048;-65
2023/07/12 06:47:22;;;;;;;15.13;9.20;;;18.70;99.90;;;;;;5031348;28;20396;-65
2023/07/12 06:49:48;;;;;;;14.90;8.88;;;18.70;99.90;;;;;;5031960;28;20128;-65
2023/07/12 06:52:13;;;;;;;12.68;8.23;;;18.70;99.90;;;;;;5032553;28;20118;-65
2023/07/12 06:54:39;;;;;;;13.00;8.13;;;18.80;99.90;;;;;;5028199;28;20073;-65
2023/07/12 06:57:05;;;;;;;14.27;7.07;;;18.90;99.90;;;;;;5030041;28;20037;-71
2023/07/12 06:59:31;;;;;;;14.82;8.00;;;19.10;99.90;;;;;;5030295;28;20056;-71
2023/07/12 07:01:56;;;;;;;14.13;8.15;;;19.30;99.90;;;;;;5030310;28;20410;-71
2023/07/12 07:04:22;;;;;;;15.10;7.68;;;19.50;99.90;;;;;;5030712;28;20037;-71
2023/07/12 07:06:48;;;;;;;13.93;8.27;;;19.60;99.90;;;;;;5031770;28;20042;-71
2023/07/12 07:09:13;;;;;;;15.20;8.13;;;19.70;99.90;;;;;;5012489;28;20484;-70
2023/07/12 07:11:39;;;;;;;15.20;7.30;;;19.60;99.90;;;;;;5012021;28;20045;-71
2023/07/12 07:14:05;;;;;;;16.27;6.80;;;19.50;99.90;;;;;;5010278;28;20046;-71
2023/07/12 07:16:30;;;;;;;14.77;7.32;;;19.50;99.90;;;;;;5029367;28;20046;-70
2023/07/12 07:18:56;;;;;;;13.57;7.20;;;19.40;99.90;;;;;;5028543;28;20067;-71
2023/07/12 07:21:23;;;;;;;14.98;6.35;;;19.30;99.90;;;;;;5028674;28;20029;-71
2023/07/12 07:23:49;;;;;;;12.52;6.30;;;19.30;99.90;;;;;;5029497;28;20052;-70
2023/07/12 07:26:15;;;;;;;13.55;6.97;;;19.30;99.90;;;;;;5030334;28;20029;-70
2023/07/12 07:28:42;;;;;;;12.05;6.60;;;19.30;99.90;;;;;;5027403;28;20053;-68
2023/07/12 07:31:08;;;;;;;11.55;6.53;;;19.20;99.90;;;;;;5029744;28;20056;-68
2023/07/12 07:33:37;;;;;;;11.60;7.10;;;19.20;99.90;;;;;;5028771;28;20088;-69
2023/07/12 07:36:05;;;;;;;13.10;6.45;;;19.10;99.90;;;;;;5029003;28;20493;-71
2023/07/12 07:38:31;;;;;;;12.57;5.97;;;19.00;99.90;;;;;;5031495;28;20045;-71
2023/07/12 07:40:56;;;;;;;9.88;6.15;;;19.00;99.90;;;;;;5030972;28;20038;-71
2023/07/12 07:43:22;;;;;;;12.15;6.30;;;19.20;99.90;;;;;;5031767;28;20045;-72
2023/07/12 07:45:48;;;;;;;11.30;6.40;;;19.40;99.90;;;;;;5030273;28;20037;-69
2023/07/12 07:48:15;;;;;;;13.98;6.68;;;19.50;99.90;;;;;;5031704;28;20047;-69
2023/07/12 07:50:42;;;;;;;10.68;6.47;;;19.70;99.90;;;;;;5031364;28;20050;-70
2023/07/12 07:53:08;;;;;;;9.45;5.40;;;19.80;99.90;;;;;;5031108;28;20045;-71
2023/07/12 07:55:34;;;;;;;9.68;5.47;;;20.10;99.90;;;;;;5029957;28;20356;-71
2023/07/12 07:58:00;;;;;;;10.73;5.63;;;20.40;99.90;;;;;;5031239;28;20037;-71
2023/07/12 08:00:26;;;;;;;10.38;6.05;;;20.50;99.90;;;;;;5031265;28;20598;-70
2023/07/12 08:02:53;;;;;;;11.32;5.85;;;20.70;99.90;;;;;;5031556;28;20068;-72
2023/07/12 08:05:19;;;;;;;11.32;5.38;;;20.90;99.90;;;;;;5029994;28;20109;-71
2023/07/12 08:07:46;;;;;;;12.48;6.00;;;21.10;99.90;;;;;;5034835;28;20578;-72
2023/07/12 08:10:15;;;;;;;9.93;4.85;;;21.10;99.90;;;;;;5033063;28;20041;-71
2023/07/12 08:12:41;;;;;;;8.60;4.70;;;21.00;99.90;;;;;;5034324;28;20487;-72
2023/07/12 08:15:07;;;;;;;8.05;4.30;;;21.10;99.90;;;;;;5032863;28;20057;-72
2023/07/12 08:17:33;;;;;;;12.70;5.57;;;21.30;99.90;;;;;;5033280;28;20034;-71
2023/07/12 08:19:59;;;;;;;13.13;5.53;;;21.40;99.90;;;;;;5033357;28;20033;-72
2023/07/12 08:22:25;;;;;;;10.35;5.30;;;21.40;99.90;;;;;;5035417;28;20033;-70
2023/07/12 08:24:50;;;;;;;10.93;5.15;;;21.30;99.90;;;;;;5032447;28;20045;-71
2023/07/12 08:27:16;;;;;;;15.30;5.30;;;21.10;99.90;;;;;;5027436;28;20041;-72
2023/07/12 08:29:43;;;;;;;11.65;5.97;;;20.90;99.90;;;;;;5033992;28;20051;-73
2023/07/12 08:32:10;;;;;;;10.98;6.10;;;20.80;99.90;;;;;;5033909;28;20064;-72
2023/07/12 08:34:35;;;;;;;13.75;6.07;;;20.80;99.90;;;;;;5033520;28;20042;-73
2023/07/12 08:37:01;;;;;;;12.32;5.55;;;20.70;99.90;;;;;;5033250;28;20453;-72
2023/07/12 08:39:27;;;;;;;11.77;6.43;;;20.70;99.90;;;;;;5033421;28;20453;-73
2023/07/12 08:41:53;;;;;;;10.27;5.43;;;20.70;99.90;;;;;;5034654;28;20045;-73
2023/07/12 08:44:19;;;;;;;10.73;5.38;;;20.70;99.90;;;;;;5033596;28;20041;-74
2023/07/12 08:47:04;;;;;;;13.45;5.90;;;20.70;99.90;;;;;;5032366;28;20056;-72
2023/07/12 08:49:29;;;;;;;11.95;5.60;;;20.70;99.90;;;;;;5014703;28;20045;-73
2023/07/12 08:52:01;;;;;;;9.68;5.38;;;20.60;99.90;;;;;;5029812;28;20034;-73
2023/07/12 08:54:33;;;;;;;11.77;5.18;;;20.50;99.90;;;;;;5014809;28;20052;-74
2023/07/12 08:57:16;;;;;;;13.95;5.50;;;20.40;99.90;;;;;;5014780;28;20068;-72
2023/07/12 08:59:44;;;;;;;12.00;4.82;;;20.40;99.90;;;;;;5013898;28;20049;-72
2023/07/12 09:02:36;;;;;;;10.25;5.25;;;20.50;99.90;;;;;;5014577;28;20117;-72
2023/07/12 09:05:23;;;;;;;11.45;5.28;;;20.60;99.90;;;;;;5012576;28;20053;-72
2023/07/12 09:07:59;;;;;;;10.57;5.13;;;20.70;99.90;;;;;;5030439;28;20052;-71
2023/07/12 09:10:39;;;;;;;11.27;5.65;;;20.70;99.90;;;;;;5034442;28;20103;-72
2023/07/12 09:13:05;;;;;;;10.90;5.78;;;20.60;99.90;;;;;;5034567;28;20048;-73
2023/07/12 09:15:36;;;;;;;11.05;6.00;;;20.50;99.90;;;;;;5034179;28;20041;-72
2023/07/12 09:18:05;;;;;;;;;;;20.40;99.90;;;;;;5033949;28;20076;-72
2023/07/12 09:20:32;;;;;;;12.25;5.35;;;20.40;99.90;;;;;;5034212;28;19964;-72
2023/07/12 09:22:58;;;;;;;13.30;5.90;;;20.30;99.90;;;;;;5034177;28;20049;-71
2023/07/12 09:25:27;;;;;;;12.88;5.45;;;20.40;99.90;;;;;;5033326;28;20049;-72
2023/07/12 09:27:53;;;;;;;9.57;5.60;;;20.50;99.90;;;;;;5034095;28;20041;-71
2023/07/12 09:30:23;;;;;;;12.80;5.70;;;20.60;99.90;;;;;;5033842;28;20072;-71
2023/07/12 09:32:52;;;;;;;12.73;6.40;;;20.60;99.90;;;;;;5033750;28;20037;-71
2023/07/12 09:35:36;;;;;;;15.00;6.97;;;20.60;99.90;;;;;;5033357;28;20045;-71
2023/07/12 09:38:05;;;;;;;11.05;5.18;;;20.60;99.90;;;;;;5033641;28;20565;-71
2023/07/12 09:40:42;;;;;;;10.90;5.28;;;20.70;99.90;;;;;;5033263;28;20049;-70
2023/07/12 09:43:27;;;;;;;12.85;4.95;;;20.90;99.90;;;;;;5034019;28;20072;-72
2023/07/12 09:46:27;;;;;;;10.15;5.50;;;21.10;99.90;;;;;;5033506;28;20407;-72
2023/07/12 09:48:56;;;;;;;12.20;5.20;;;21.30;99.90;;;;;;5032962;28;20049;-72
2023/07/12 09:51:53;;;;;;;9.15;5.35;;;21.70;99.90;;;;;;5033252;28;20487;-73
2023/07/12 09:54:33;;;;;;;8.02;5.00;;;21.90;99.90;;;;;;5009864;28;20053;-72
2023/07/12 09:57:15;;;;;;;13.48;5.57;;;21.90;99.90;;;;;;5033224;28;20041;-72
2023/07/12 09:59:55;;;;;;;12.82;5.50;;;21.60;99.90;;;;;;5033549;28;20550;-73
2023/07/12 10:02:44;;;;;;;8.93;5.38;;;21.30;99.90;;;;;;5030120;28;20057;-72
2023/07/12 10:05:18;;;;;;;11.00;5.80;;;21.10;99.90;;;;;;5028413;28;20096;-73
2023/07/12 10:07:53;;;;;;;12.10;5.70;;;20.80;99.90;;;;;;5031603;28;20037;-74
2023/07/12 10:10:27;;;;;;;8.73;5.03;;;20.60;99.90;;;;;;5026895;28;20029;-73
2023/07/12 10:13:12;;;;;;;10.05;5.50;;;20.50;99.90;;;;;;5029150;28;20132;-73
2023/07/12 10:15:39;;;;;;;14.20;5.72;;;20.50;99.90;;;;;;5028669;28;20064;-69
2023/07/12 10:18:05;;;;;;;9.32;5.15;;;20.80;99.90;;;;;;5025637;28;20037;-71
2023/07/12 10:20:32;;;;;;;11.75;5.07;;;20.90;99.90;;;;;;5027486;28;20037;-72
2023/07/12 10:22:58;;;;;;;11.27;4.97;;;21.20;99.90;;;;;;5032646;28;20483;-70
2023/07/12 10:25:30;;;;;;;12.40;5.32;;;21.40;99.90;;;;;;5031828;28;20087;-72
2023/07/12 10:28:23;;;;;;;11.50;4.93;;;21.60;99.90;;;;;;5031198;28;20080;-73
2023/07/12 10:30:50;;;;;;;7.95;5.20;;;21.50;99.90;;;;;;5032970;28;20033;-73
2023/07/12 10:33:44;;;;;;;11.00;4.63;;;21.50;99.90;;;;;;5032410;28;20064;-72
2023/07/12 10:36:16;;;;;;;10.00;4.32;;;21.50;99.90;;;;;;5030357;28;20438;-72
2023/07/12 10:38:42;;;;;;;13.10;4.57;;;21.70;99.90;;;;;;5027045;28;20080;-72
2023/07/12 10:41:13;;;;;;;12.60;4.57;;;21.80;99.90;;;;;;5030102;28;20033;-72
2023/07/12 10:43:46;;;;;;;9.98;3.50;;;21.80;99.90;;;;;;5032424;28;20073;-71
2023/07/12 10:46:25;;;;;;;10.80;3.83;;;21.60;99.90;;;;;;5032193;28;20446;-72
2023/07/12 10:48:54;;;;;;;7.53;3.20;;;21.70;99.90;;;;;;5032460;28;20479;-72
2023/07/12 10:51:41;;;;;;;10.23;3.33;;;21.80;99.90;;;;;;5032070;28;20041;-72
2023/07/12 10:54:29;;;;;;;11.10;3.63;;;22.00;99.90;;;;;;5031707;28;20510;-70
2023/07/12 10:57:01;;;;;;;9.40;4.20;;;22.40;99.90;;;;;;5042657;22;20052;-65
2023/07/12 10:59:33;;;;;;;9.15;3.88;;;22.60;99.90;;;;;;5030485;28;20480;-66
2023/07/12 11:02:04;;;;;;;9.05;3.83;;;22.60;99.90;;;;;;5032043;28;20041;-66
2023/07/12 11:04:30;;;;;;;9.25;4.40;;;22.60;99.90;;;;;;5031576;28;20048;-66
2023/07/12 11:07:12;;;;;;;9.38;3.83;;;22.60;99.90;;;;;;5031904;28;20392;-66
2023/07/12 11:09:47;;;;;;;10.43;4.53;;;22.50;99.90;;;;;;5024252;28;20116;-66
2023/07/12 11:12:30;;;;;;;6.43;3.90;;;22.40;99.90;;;;;;5024402;28;20045;-66
2023/07/12 11:15:26;;;;;;;10.15;4.60;;;22.50;99.90;;;;;;5026427;28;20042;-65
2023/07/12 11:18:21;;;;;;;11.10;3.92;;;22.50;99.90;;;;;;5025376;28;20030;-65
2023/07/12 11:21:06;;;;;;;8.20;3.88;;;22.40;99.90;;;;;;5023874;28;20065;-66
2023/07/12 11:23:38;;;;;;;9.07;3.78;;;22.30;99.90;;;;;;5022271;28;20037;-66
2023/07/12 11:26:26;;;;;;;10.00;3.60;;;22.40;99.90;;;;;;5021337;28;20046;-66
2023/07/12 11:28:52;;;;;;;7.85;3.45;;;22.50;99.90;;;;;;5023546;28;20041;-66
2023/07/12 11:31:25;;;;;;;9.05;3.38;;;22.70;99.90;;;;;;5024949;28;20412;-66
2023/07/12 11:34:02;;;;;;;6.30;3.50;;;22.90;99.90;;;;;;5018218;28;20046;-65
2023/07/12 11:36:34;;;;;;;8.60;3.78;;;23.00;99.90;;;;;;5023168;28;20040;-67
2023/07/12 11:39:01;;;;;;;9.32;3.10;;;23.20;99.90;;;;;;5020430;28;20061;-67
2023/07/12 11:41:28;;;;;;;9.00;3.30;;;23.30;99.90;;;;;;5026573;28;20545;-67
2023/07/12 11:44:06;;;;;;;7.88;3.30;;;23.50;99.90;;;;;;5027059;28;20404;-67
2023/07/12 11:46:37;;;;;;;6.53;3.13;;;23.60;99.90;;;;;;5023968;28;20033;-67
2023/07/12 11:49:13;;;;;;;7.13;3.28;;;23.80;99.90;;;;;;5023280;28;20354;-67
2023/07/12 11:51:42;;;;;;;6.22;3.10;;;23.80;99.90;;;;;;5024645;28;20064;-67
2023/07/12 11:54:26;;;;;;;6.60;3.38;;;24.00;99.90;;;;;;5022167;28;20111;-65
2023/07/12 11:56:57;;;;;;;9.55;3.38;;;23.90;99.90;;;;;;5025651;28;20033;-65
2023/07/12 11:59:25;;;;;;;7.95;3.00;;;23.60;99.90;;;;;;5022389;28;20053;-65
2023/07/12 12:01:52;;;;;;;6.82;3.00;;;23.40;99.90;;;;;;5022052;28;20060;-65
2023/07/12 12:04:21;;;;;;;7.05;3.20;;;23.50;99.90;;;;;;5022001;28;20034;-65
2023/07/12 12:06:51;;;;;;;6.78;2.17;;;23.70;99.90;;;;;;5019605;28;20423;-65
2023/07/12 12:09:25;;;;;;;4.20;2.20;;;23.90;99.90;;;;;;5025511;28;20170;-65
2023/07/12 12:11:54;;;;;;;2.25;1.75;;;23.80;99.90;;;;;;5024879;28;20044;-65
2023/07/12 12:14:26;;;;;;;5.13;1.60;;;23.70;99.90;;;;;;5027268;28;20120;-66
2023/07/12 12:16:54;;;;;;;3.47;1.75;;;23.60;99.90;;;;;;5026069;28;20037;-66
2023/07/12 12:19:21;;;;;;;2.50;1.40;;;23.40;99.90;;;;;;5026211;28;20089;-66
2023/07/12 12:21:58;;;;;;;3.95;1.90;;;23.30;99.90;;;;;;5029942;28;20395;-65
2023/07/12 12:24:25;;;;;;;3.80;1.60;;;23.00;99.90;;;;;;5017996;28;20511;-65
2023/07/12 12:26:51;;;;;;;3.70;1.58;;;23.10;99.90;;;;;;5020602;28;20092;-66
2023/07/12 12:29:21;;;;;;;2.22;1.50;;;23.20;99.90;;;;;;5029665;28;20041;-65
2023/07/12 12:32:02;;;;;;;3.30;1.48;;;23.30;99.90;;;;;;5030270;28;20038;-66
2023/07/12 12:34:37;;;;;;;3.28;1.40;;;23.50;99.90;;;;;;5009911;28;20120;-65
2023/07/12 12:37:05;;;;;;;3.00;1.23;;;23.50;99.90;;;;;;5010781;28;20566;-65
2023/07/12 12:39:31;;;;;;;4.65;1.25;;;23.50;99.90;;;;;;5014813;28;20569;-65
2023/07/12 12:42:02;;;;;;;2.95;1.10;;;23.40;99.90;;;;;;5031198;28;20124;-65
2023/07/12 12:44:29;;;;;;;;;;;23.40;99.90;;;;;;5029762;28;20049;-65
2023/07/12 12:46:56;;;;;;;2.88;1.20;;;23.40;99.90;;;;;;5030980;28;19921;-65
2023/07/12 12:49:28;;;;;;;4.10;1.40;;;23.60;99.90;;;;;;5030101;28;20083;-66
2023/07/12 12:51:56;;;;;;;3.08;1.17;;;23.70;99.90;;;;;;5030526;28;20387;-66